Time;durP1;ratioP1;P1;durP2;ratioP2;P2;SDS_P1;SDS_P2;PMS_P1;PMS_P2;Temp;Humidity;BMP_temperature;BMP_pressure;BME280_temperature;BME280_humidity;BME280_pressure;Samples;Min_cycle;Max_cycle;Signal;HPM_P1;HPM_P2
2021/08/07 00:01:21;;;;;;;;;;;16.60;99.90;;;;;;4991095;28;19920;-70
2021/08/07 00:03:47;;;;;;;;;;;16.70;99.90;;;;;;4991103;28;19917;-70
2021/08/07 00:06:12;;;;;;;;;;;16.80;99.90;;;;;;4990824;28;20295;-70
2021/08/07 00:08:38;;;;;;;;;;;16.80;99.90;;;;;;4989877;28;19917;-70
2021/08/07 00:11:03;;;;;;;;;;;16.90;99.90;;;;;;4991243;28;19909;-70
2021/08/07 00:13:29;;;;;;;;;;;16.90;99.90;;;;;;4974827;28;20394;-70
2021/08/07 00:15:54;;;;;;;;;;;16.90;99.90;;;;;;4994270;28;20291;-70
2021/08/07 00:18:19;;;;;;;;;;;17.00;99.90;;;;;;4994224;28;19914;-70
2021/08/07 00:20:45;;;;;;;;;;;17.00;99.90;;;;;;4994217;28;19910;-70
2021/08/07 00:23:10;;;;;;;;;;;16.90;99.90;;;;;;4994119;28;20424;-70
2021/08/07 00:25:36;;;;;;;;;;;16.80;99.90;;;;;;4994037;28;19920;-70
2021/08/07 00:28:01;;;;;;;;;;;16.80;99.90;;;;;;4994333;28;20366;-70
2021/08/07 00:30:27;;;;;;;;;;;16.80;99.90;;;;;;4993190;28;19953;-70
2021/08/07 00:32:52;;;;;;;;;;;16.70;99.90;;;;;;4992738;28;19910;-71
2021/08/07 00:35:18;;;;;;;;;;;16.70;99.90;;;;;;4994278;28;19910;-70
2021/08/07 00:37:43;;;;;;;;;;;16.70;99.90;;;;;;4994199;28;19916;-70
2021/08/07 00:40:09;;;;;;;;;;;16.60;99.90;;;;;;4994171;28;19910;-70
2021/08/07 00:42:34;;;;;;;;;;;16.60;99.90;;;;;;4994131;28;19910;-70
2021/08/07 00:45:00;;;;;;;;;;;16.60;99.90;;;;;;4994133;28;19922;-70
2021/08/07 00:47:25;;;;;;;;;;;16.60;99.90;;;;;;4992774;28;20324;-70
2021/08/07 00:49:51;;;;;;;;;;;16.60;99.90;;;;;;4992555;28;20375;-70
2021/08/07 00:52:16;;;;;;;;;;;16.70;99.90;;;;;;4992584;28;19917;-70
2021/08/07 00:54:42;;;;;;;;;;;16.70;99.90;;;;;;4994010;28;19910;-70
2021/08/07 00:57:07;;;;;;;;;;;16.60;99.90;;;;;;4993922;28;20283;-70
2021/08/07 00:59:33;;;;;;;;;;;16.60;99.90;;;;;;4992367;28;20039;-70
2021/08/07 01:02:00;;;;;;;;;;;16.60;99.90;;;;;;4993591;28;20008;-70
2021/08/07 01:04:27;;;;;;;;;;;16.70;99.90;;;;;;4993543;28;20081;-70
2021/08/07 01:06:55;;;;;;;;;;;16.60;99.90;;;;;;4992043;28;20382;-70
2021/08/07 01:09:28;;;;;;;;;;;16.60;99.90;;;;;;4993757;28;19914;-70
2021/08/07 01:14:37;;;;;;;;;;;16.60;99.90;;;;;;5092380;27;19913;-70
2021/08/07 01:17:04;;;;;;;;;;;16.60;99.90;;;;;;5091769;28;20369;-70
2021/08/07 01:19:36;;;;;;;;;;;16.50;99.90;;;;;;5091701;28;20003;-69
2021/08/07 01:22:04;;;;;;;;;;;16.60;99.90;;;;;;5091652;28;19912;-70
2021/08/07 01:24:41;;;;;;;;;;;16.50;99.90;;;;;;5091874;28;19944;-70
2021/08/07 01:27:12;;;;;;;;;;;16.50;99.90;;;;;;5124402;28;19908;-70
2021/08/07 01:29:37;;;;;;;;;;;16.50;99.90;;;;;;5091486;28;19935;-69
2021/08/07 01:32:03;;;;;;;;;;;16.40;99.90;;;;;;5124428;28;19908;-70
2021/08/07 01:34:29;;;;;;;;;;;16.40;99.90;;;;;;5091356;28;19916;-70
2021/08/07 01:36:54;;;;;;;;;;;16.30;99.90;;;;;;5091398;28;19908;-70
2021/08/07 01:39:20;;;;;;;;;;;16.30;99.90;;;;;;5091326;28;19908;-70
2021/08/07 01:41:45;;;;;;;;;;;16.20;99.90;;;;;;5090971;28;19967;-70
2021/08/07 01:44:11;;;;;;;;;;;16.10;99.90;;;;;;5091250;28;19977;-70
2021/08/07 01:46:41;;;;;;;;;;;16.00;99.90;;;;;;5091478;28;20403;-70
2021/08/07 01:49:13;;;;;;;;;;;15.90;99.90;;;;;;5123946;28;19908;-70
2021/08/07 01:51:55;;;;;;;;;;;15.80;99.90;;;;;;5091314;28;20265;-70
2021/08/07 01:54:27;;;;;;;;;;;15.80;99.90;;;;;;5089395;28;19978;-70
2021/08/07 01:56:55;;;;;;;;;;;15.80;99.90;;;;;;5090997;28;19908;-70
2021/08/07 01:59:21;;;;;;;;;;;15.80;99.90;;;;;;5089405;28;20340;-70
2021/08/07 02:01:48;;;;;;;;;;;15.80;99.90;;;;;;5090944;28;19913;-70
2021/08/07 02:04:14;;;;;;;;;;;15.80;99.90;;;;;;5090843;28;20262;-69
2021/08/07 02:06:40;;;;;;;;;;;15.90;99.90;;;;;;5091072;28;20423;-70
2021/08/07 02:09:06;;;;;;;;;;;15.80;99.90;;;;;;5091034;28;20011;-70
2021/08/07 02:11:32;;;;;;;;;;;15.80;99.90;;;;;;5091005;28;19908;-70
2021/08/07 02:13:58;;;;;;;;;;;15.80;99.90;;;;;;5105759;28;19920;-70
2021/08/07 02:16:23;;;;;;;;;;;15.80;99.90;;;;;;5111281;28;20376;-70
2021/08/07 02:18:51;;;;;;;;;;;15.90;99.90;;;;;;5111218;28;19970;-70
2021/08/07 02:21:17;;;;;;;;;;;16.00;99.90;;;;;;5110615;28;19957;-70
2021/08/07 02:23:45;;;;;;;;;;;16.20;99.90;;;;;;5109980;28;19908;-70
2021/08/07 02:26:11;;;;;;;;;;;16.30;99.90;;;;;;5078357;28;19915;-70
2021/08/07 02:28:37;;;;;;;;;;;16.40;99.90;;;;;;5096898;28;19908;-70
2021/08/07 02:31:02;;;;;;;;;;;16.40;99.90;;;;;;5096843;28;19915;-70
2021/08/07 02:33:28;;;;;;;;;;;16.40;99.90;;;;;;5096684;28;19919;-70
2021/08/07 02:35:55;;;;;;;;;;;16.50;99.90;;;;;;5078629;28;19953;-70
2021/08/07 02:38:20;;;;;;;;;;;16.50;99.90;;;;;;5096679;28;20352;-70
2021/08/07 02:40:46;;;;;;;;;;;16.60;99.90;;;;;;5096945;28;19958;-70
2021/08/07 02:43:12;;;;;;;;;;;16.60;99.90;;;;;;5096912;28;19908;-70
2021/08/07 02:45:38;;;;;;;;;;;16.60;99.90;;;;;;5097120;28;19908;-70
2021/08/07 02:48:04;;;;;;;;;;;16.60;99.90;;;;;;5097074;28;19957;-70
2021/08/07 02:50:29;;;;;;;;;;;16.60;99.90;;;;;;5097034;28;19912;-70
2021/08/07 02:52:56;;;;;;;;;;;16.60;99.90;;;;;;5096617;28;19912;-70
2021/08/07 02:55:22;;;;;;;;;;;16.70;99.90;;;;;;5096650;28;20050;-70
2021/08/07 02:57:51;;;;;;;;;;;16.70;99.90;;;;;;5097178;28;20315;-70
2021/08/07 03:00:17;;;;;;;;;;;16.70;99.90;;;;;;5078143;28;19915;-70
2021/08/07 03:02:43;;;;;;;;;;;16.70;99.90;;;;;;5078108;28;20366;-70
2021/08/07 03:05:08;;;;;;;;;;;16.70;99.90;;;;;;5078033;28;19912;-70
2021/08/07 03:07:34;;;;;;;;;;;16.70;99.90;;;;;;5096399;28;20383;-70
2021/08/07 03:09:59;;;;;;;;;;;16.80;99.90;;;;;;5096396;28;19908;-70
2021/08/07 03:12:25;;;;;;;;;;;16.80;99.90;;;;;;5095816;28;20377;-70
2021/08/07 03:14:50;;;;;;;;;;;16.80;99.90;;;;;;5095998;28;20293;-70
2021/08/07 03:17:15;;;;;;;;;;;16.80;99.90;;;;;;5095981;28;20288;-70
2021/08/07 03:19:41;;;;;;;;;;;16.70;99.90;;;;;;5095931;28;20339;-70
2021/08/07 03:22:06;;;;;;;;;;;16.70;99.90;;;;;;5096404;28;20019;-70
2021/08/07 03:24:32;;;;;;;;;;;16.70;99.90;;;;;;5096417;28;19908;-70
2021/08/07 03:26:57;;;;;;;;;;;16.60;99.90;;;;;;5096333;28;19916;-70
2021/08/07 03:29:23;;;;;;;;;;;16.60;99.90;;;;;;5077577;28;20372;-70
2021/08/07 03:31:48;;;;;;;;;;;16.60;99.90;;;;;;5095675;28;19909;-70
2021/08/07 03:34:14;;;;;;;;;;;16.50;99.90;;;;;;5095540;28;20281;-70
2021/08/07 03:36:39;;;;;;;;;;;16.50;99.90;;;;;;5077048;28;19912;-70
2021/08/07 03:39:05;;;;;;;;;;;16.40;99.90;;;;;;5095814;28;19908;-70
2021/08/07 03:41:31;;;;;;;;;;;16.40;99.90;;;;;;5077696;28;19960;-70
2021/08/07 03:43:56;;;;;;;;;;;16.40;99.90;;;;;;5095715;28;20007;-70
2021/08/07 03:46:21;;;;;;;;;;;16.40;99.90;;;;;;5095627;28;19912;-70
2021/08/07 03:48:47;;;;;;;;;;;16.20;99.90;;;;;;5095597;28;19930;-70
2021/08/07 03:51:12;;;;;;;;;;;16.10;99.90;;;;;;5095560;28;19909;-70
2021/08/07 03:53:38;;;;;;;;;;;16.10;99.90;;;;;;5095154;28;19912;-70
2021/08/07 03:56:03;;;;;;;;;;;16.00;99.90;;;;;;5095211;28;19931;-70
2021/08/07 03:58:29;;;;;;;;;;;15.90;99.90;;;;;;5095431;28;19955;-70
2021/08/07 04:00:54;;;;;;;;;;;15.70;99.90;;;;;;5095649;28;19957;-70
2021/08/07 04:03:20;;;;;;;;;;;15.60;99.90;;;;;;5077301;28;19908;-70
2021/08/07 04:05:45;;;;;;;;;;;15.50;99.90;;;;;;5076841;28;19912;-70
2021/08/07 04:08:10;;;;;;;;;;;15.50;99.90;;;;;;5094984;28;20011;-70
2021/08/07 04:10:37;;;;;;;;;;;15.40;99.90;;;;;;5094925;28;19927;-69
2021/08/07 04:13:03;;;;;;;;;;;15.40;99.90;;;;;;5077569;28;20301;-71
2021/08/07 04:15:28;;;;;;;;;;;15.30;99.90;;;;;;5095687;28;19909;-70
2021/08/07 04:17:53;;;;;;;;;;;15.20;99.90;;;;;;5095089;28;19934;-70
2021/08/07 04:20:19;;;;;;;;;;;15.10;99.90;;;;;;5095041;28;19908;-70
2021/08/07 04:22:45;;;;;;;;;;;15.10;99.90;;;;;;5095021;28;20277;-70
2021/08/07 04:25:11;;;;;;;;;;;15.00;99.90;;;;;;5076446;28;20373;-70
2021/08/07 04:27:36;;;;;;;;;;;15.00;99.90;;;;;;5076851;28;19919;-70
2021/08/07 04:30:03;;;;;;;;;;;14.90;99.90;;;;;;5077264;28;19908;-70
2021/08/07 04:32:28;;;;;;;;;;;14.90;99.90;;;;;;5095037;28;20369;-70
2021/08/07 04:34:54;;;;;;;;;;;14.90;99.90;;;;;;5095076;28;19970;-69
2021/08/07 04:37:19;;;;;;;;;;;14.90;99.90;;;;;;5094723;28;19912;-70
2021/08/07 04:39:45;;;;;;;;;;;14.90;99.90;;;;;;5094744;28;19908;-69
2021/08/07 04:42:10;;;;;;;;;;;14.90;99.90;;;;;;5076247;28;19908;-69
2021/08/07 04:44:36;;;;;;;;;;;15.00;99.90;;;;;;5094638;28;20430;-69
2021/08/07 04:47:02;;;;;;;;;;;15.00;99.90;;;;;;5094053;28;19909;-69
2021/08/07 04:49:27;;;;;;;;;;;15.10;99.90;;;;;;5076415;28;19908;-69
2021/08/07 04:51:53;;;;;;;;;;;15.10;99.90;;;;;;5094239;28;19978;-69
2021/08/07 04:54:18;;;;;;;;;;;15.20;99.90;;;;;;5094143;28;19912;-69
2021/08/07 04:56:44;;;;;;;;;;;15.30;99.90;;;;;;5094168;28;20308;-69
2021/08/07 04:59:09;;;;;;;;;;;15.50;99.90;;;;;;5094157;28;19908;-69
2021/08/07 05:01:34;;;;;;;;;;;15.70;99.90;;;;;;5094156;28;19908;-70
2021/08/07 05:04:00;;;;;;;;;;;16.00;99.90;;;;;;5076439;28;19908;-70
2021/08/07 05:06:25;;;;;;;;;;;16.10;99.90;;;;;;5094386;28;19913;-70
2021/08/07 05:08:51;;;;;;;;;;;16.20;99.90;;;;;;5094369;28;19914;-69
2021/08/07 05:11:16;;;;;;;;;;;16.20;99.90;;;;;;5075914;28;19935;-69
2021/08/07 05:13:42;;;;;;;;;;;16.30;99.90;;;;;;5093752;28;19971;-69
2021/08/07 05:16:07;;;;;;;;;;;16.40;99.90;;;;;;5093983;28;19916;-69
2021/08/07 05:18:32;;;;;;;;;;;16.50;99.90;;;;;;5093934;28;19934;-69
2021/08/07 05:20:58;;;;;;;;;;;16.70;99.90;;;;;;5075886;28;19938;-69
2021/08/07 05:23:23;;;;;;;;;;;16.80;99.90;;;;;;5093939;28;19908;-69
2021/08/07 05:25:49;;;;;;;;;;;16.90;99.90;;;;;;5093879;28;20361;-69
2021/08/07 05:28:14;;;;;;;;;;;17.00;99.90;;;;;;5075871;28;20285;-69
2021/08/07 05:30:40;;;;;;;;;;;17.10;99.90;;;;;;5075732;28;19908;-69
2021/08/07 05:33:05;;;;;;;;;;;17.20;99.90;;;;;;5093766;28;19912;-69
2021/08/07 05:35:31;;;;;;;;;;;17.30;99.90;;;;;;5094074;28;19908;-69
2021/08/07 05:37:56;;;;;;;;;;;17.50;99.90;;;;;;5094046;28;20422;-70
2021/08/07 05:40:22;;;;;;;;;;;17.70;99.90;;;;;;5094048;28;19977;-69
2021/08/07 05:42:48;;;;;;;;;;;17.90;99.90;;;;;;5094002;28;20264;-70
2021/08/07 05:45:14;;;;;;;;;;;18.10;99.90;;;;;;5094003;28;19908;-70
2021/08/07 05:47:40;;;;;;;;;;;18.40;99.90;;;;;;5093961;28;19915;-69
2021/08/07 05:50:06;;;;;;;;;;;18.90;99.90;;;;;;5093950;28;19908;-70
2021/08/07 05:52:31;;;;;;;;;;;19.30;99.90;;;;;;5093890;28;19909;-70
2021/08/07 05:54:57;;;;;;;;;;;19.40;99.90;;;;;;5075876;28;19916;-70
2021/08/07 05:57:22;;;;;;;;;;;19.30;99.90;;;;;;5093949;28;19912;-70
2021/08/07 05:59:48;;;;;;;;;;;19.10;99.90;;;;;;5095071;28;19908;-69
2021/08/07 06:02:13;;;;;;;;;;;18.80;99.90;;;;;;5097727;28;19908;-69
2021/08/07 06:04:39;;;;;;;;;;;18.50;99.90;;;;;;5097377;28;19956;-69
2021/08/07 06:07:04;;;;;;;;;;;18.50;99.90;;;;;;5097626;28;19908;-70
2021/08/07 06:09:30;;;;;;;;;;;18.50;99.90;;;;;;5097575;28;19915;-70
2021/08/07 06:11:55;;;;;;;;;;;18.50;99.90;;;;;;5097548;28;20372;-69
2021/08/07 06:14:21;;;;;;;;;;;18.50;99.90;;;;;;5097036;28;19924;-69
2021/08/07 06:16:46;;;;;;;;;;;18.60;99.90;;;;;;5097108;28;19912;-70
2021/08/07 06:19:12;;;;;;;;;;;18.70;99.90;;;;;;5097070;28;20319;-69
2021/08/07 06:21:37;;;;;;;;;;;18.90;99.90;;;;;;5097869;28;19934;-69
2021/08/07 06:24:03;;;;;;;;;;;19.40;99.90;;;;;;5097548;28;19908;-69
2021/08/07 06:26:28;;;;;;;;;;;19.50;99.90;;;;;;5097518;28;19989;-70
2021/08/07 06:28:54;;;;;;;;;;;19.90;99.90;;;;;;5097190;28;20405;-69
2021/08/07 06:31:19;;;;;;;;;;;20.10;99.90;;;;;;5097138;28;19912;-69
2021/08/07 06:33:45;;;;;;;;;;;20.10;99.90;;;;;;5097003;28;19916;-69
2021/08/07 06:36:10;;;;;;;;;;;19.90;99.90;;;;;;5079110;28;19909;-70
2021/08/07 06:38:36;;;;;;;;;;;19.70;99.90;;;;;;5078902;28;19912;-69
2021/08/07 06:41:02;;;;;;;;;;;19.70;99.90;;;;;;5096701;28;19908;-70
2021/08/07 06:43:27;;;;;;;;;;;19.80;99.90;;;;;;5096918;28;19908;-70
2021/08/07 06:45:53;;;;;;;;;;;19.60;99.90;;;;;;5096566;28;20388;-69
2021/08/07 06:48:18;;;;;;;;;;;19.60;99.90;;;;;;5096520;28;19915;-69
2021/08/07 06:50:44;;;;;;;;;;;19.50;99.90;;;;;;5096780;28;20353;-69
2021/08/07 06:53:10;;;;;;;;;;;19.50;99.90;;;;;;5096648;28;20340;-69
2021/08/07 06:55:36;;;;;;;;;;;19.50;99.90;;;;;;5096704;28;19912;-69
2021/08/07 06:58:01;;;;;;;;;;;19.50;99.90;;;;;;5078622;28;20422;-69
2021/08/07 07:00:27;;;;;;;;;;;19.30;99.90;;;;;;5078188;28;20258;-72
2021/08/07 07:02:52;;;;;;;;;;;19.20;99.90;;;;;;5096544;28;19908;-69
2021/08/07 07:05:18;;;;;;;;;;;19.10;99.90;;;;;;5096504;28;20428;-69
2021/08/07 07:07:43;;;;;;;;;;;19.00;99.90;;;;;;5096139;28;20380;-69
2021/08/07 07:10:10;;;;;;;;;;;19.10;99.90;;;;;;5095983;28;19908;-70
2021/08/07 07:12:35;;;;;;;;;;;19.50;99.90;;;;;;5095796;28;19916;-70
2021/08/07 07:15:01;;;;;;;;;;;19.50;99.90;;;;;;5096023;28;19916;-70
2021/08/07 07:17:28;;;;;;;;;;;19.40;99.90;;;;;;5096004;28;19919;-70
2021/08/07 07:19:54;;;;;;;;;;;19.30;99.90;;;;;;5096196;28;19915;-70
2021/08/07 07:22:19;;;;;;;;;;;19.20;99.90;;;;;;5096164;28;20339;-69
2021/08/07 07:24:45;;;;;;;;;;;19.40;99.90;;;;;;5096136;28;19908;-69
2021/08/07 07:27:10;;;;;;;;;;;19.50;99.90;;;;;;5095775;28;20361;-69
2021/08/07 07:29:36;;;;;;;;;;;19.40;99.90;;;;;;5096285;28;19912;-69
2021/08/07 07:32:01;;;;;;;;;;;19.50;99.90;;;;;;5077930;28;19955;-69
2021/08/07 07:34:27;;;;;;;;;;;19.50;99.90;;;;;;5077851;28;20281;-69
2021/08/07 07:36:52;;;;;;;;;;;19.50;99.90;;;;;;5096162;28;20361;-69
2021/08/07 07:39:17;;;;;;;;;;;19.60;99.90;;;;;;5096120;28;20353;-69
2021/08/07 07:41:43;;;;;;;;;;;19.60;99.90;;;;;;5096041;28;19931;-70
2021/08/07 07:44:09;;;;;;;;;;;19.80;99.90;;;;;;5095962;28;19960;-69
2021/08/07 07:46:34;;;;;;;;;;;20.10;99.90;;;;;;5095957;28;19908;-70
2021/08/07 07:49:00;;;;;;;;;;;20.50;99.90;;;;;;5095924;28;19908;-69
2021/08/07 07:51:26;;;;;;;;;;;20.60;99.90;;;;;;5095881;28;20406;-69
2021/08/07 07:53:51;;;;;;;;;;;20.90;99.90;;;;;;5095716;28;20007;-69
2021/08/07 07:56:16;;;;;;;;;;;21.00;99.90;;;;;;5095552;28;19961;-69
2021/08/07 07:58:42;;;;;;;;;;;21.50;99.90;;;;;;5095480;28;20372;-70
2021/08/07 08:01:07;;;;;;;;;;;21.50;99.90;;;;;;5095372;28;20272;-69
2021/08/07 08:03:33;;;;;;;;;;;21.60;99.90;;;;;;5095336;28;19908;-70
2021/08/07 08:05:58;;;;;;;;;;;21.30;99.90;;;;;;5095296;28;19912;-70
2021/08/07 08:08:39;;;;;;;;;;;20.90;99.90;;;;;;5094969;28;20317;-69
2021/08/07 08:11:04;;;;;;;;;;;20.80;99.90;;;;;;5095234;28;19908;-70
2021/08/07 08:13:30;;;;;;;;;;;20.90;99.90;;;;;;5095103;28;19927;-70
2021/08/07 08:15:55;;;;;;;;;;;20.70;99.90;;;;;;5094812;28;20366;-70
2021/08/07 08:18:21;;;;;;;;;;;20.50;99.90;;;;;;5094777;28;19999;-70
2021/08/07 08:20:46;;;;;;;;;;;20.20;99.90;;;;;;5094686;28;20388;-70
2021/08/07 08:23:12;;;;;;;;;;;19.90;99.90;;;;;;5094187;28;19915;-70
2021/08/07 08:25:37;;;;;;;;;;;19.60;99.90;;;;;;5076895;28;19908;-70
2021/08/07 08:28:04;;;;;;;;;;;19.50;99.90;;;;;;5095207;28;19965;-70
2021/08/07 08:30:29;;;;;;;;;;;19.50;99.90;;;;;;5094872;28;19915;-70
2021/08/07 08:32:55;;;;;;;;;;;19.60;99.90;;;;;;5094919;28;19912;-70
2021/08/07 08:35:21;;;;;;;;;;;19.80;99.90;;;;;;5094805;28;19962;-70
2021/08/07 08:37:47;;;;;;;;;;;19.90;99.90;;;;;;5094739;28;19912;-70
2021/08/07 08:40:12;;;;;;;;;;;19.80;99.90;;;;;;5094479;28;19915;-70
2021/08/07 08:42:38;;;;;;;;;;;19.90;99.90;;;;;;5094378;28;19908;-70
2021/08/07 08:45:04;;;;;;;;;;;20.00;99.90;;;;;;5076283;28;19908;-70
2021/08/07 08:47:30;;;;;;;;;;;20.20;99.90;;;;;;5094331;28;20420;-70
2021/08/07 08:49:55;;;;;;;;;;;20.30;99.90;;;;;;5094595;28;19985;-70
2021/08/07 08:52:23;;;;;;;;;;;20.50;99.90;;;;;;5094564;28;19908;-70
2021/08/07 08:54:49;;;;;;;;;;;20.80;99.90;;;;;;5094594;28;19964;-70
2021/08/07 08:57:16;;;;;;;;;;;21.10;99.90;;;;;;5094509;28;20006;-70
2021/08/07 08:59:42;;;;;;;;;;;22.40;99.90;;;;;;5094440;28;19908;-70
2021/08/07 09:02:08;;;;;;;;;;;23.00;99.90;;;;;;5076378;28;19929;-70
2021/08/07 09:04:33;;;;;;;;;;;23.20;99.90;;;;;;5094382;28;19908;-70
2021/08/07 09:06:59;;;;;;;;;;;23.70;99.90;;;;;;5094330;28;19909;-70
2021/08/07 09:09:41;;;;;;;;;;;23.70;99.90;;;;;;5076222;28;19908;-71
2021/08/07 09:12:07;;;;;;;;;;;23.50;99.90;;;;;;5093938;28;19931;-71
2021/08/07 09:14:35;;;;;;;;;;;23.90;99.90;;;;;;5075626;28;20234;-71
2021/08/07 09:17:04;;;;;;;;;;;24.40;99.90;;;;;;5093982;28;19908;-70
2021/08/07 09:19:50;;;;;;;;;;;24.70;99.90;;;;;;5094546;28;19908;-71
2021/08/07 09:24:57;;;;;;;;;;;25.50;99.90;;;;;;5092360;27;19913;-71
2021/08/07 09:27:42;;;;;;;;;;;25.30;99.90;;;;;;5091876;28;20003;-70
2021/08/07 09:30:25;;;;;;;;;;;25.40;99.90;;;;;;5091391;28;19908;-70
2021/08/07 09:32:54;;;;;;;;;;;24.70;99.90;;;;;;5091589;28;20277;-70
2021/08/07 09:35:21;;;;;;;;;;;24.60;99.90;;;;;;5124373;28;20354;-70
2021/08/07 09:38:02;;;;;;;;;;;24.40;99.90;;;;;;5089995;28;19909;-70
2021/08/07 09:40:36;;;;;;;;;;;24.00;99.90;;;;;;5091173;28;20277;-70
2021/08/07 09:43:02;;;;;;;;;;;23.20;99.90;;;;;;5089919;28;19912;-70
2021/08/07 09:45:27;;;;;;;;;;;23.60;99.90;;;;;;5090312;28;19962;-70
2021/08/07 09:48:03;;;;;;;;;;;24.50;99.90;;;;;;5091352;28;20258;-69
2021/08/07 09:50:29;;;;;;;;;;;24.20;99.90;;;;;;5089693;28;19948;-69
2021/08/07 09:52:55;;;;;;;;;;;23.20;99.90;;;;;;5091158;28;19917;-69
2021/08/07 09:55:21;;;;;;;;;;;22.70;99.90;;;;;;5091132;28;20381;-70
2021/08/07 09:57:58;;;;;;;;;;;22.70;99.90;;;;;;5091072;28;19909;-70
2021/08/07 10:00:40;;;;;;;;;;;22.50;99.90;;;;;;5089465;28;20294;-70
2021/08/07 10:03:14;;;;;;;;;;;22.30;99.90;;;;;;5090656;28;19920;-70
2021/08/07 10:05:40;;;;;;;;;;;22.40;99.90;;;;;;5090657;28;19908;-70
2021/08/07 10:08:07;;;;;;;;;;;22.10;99.90;;;;;;5089292;28;19916;-70
2021/08/07 10:10:33;;;;;;;;;;;22.10;99.90;;;;;;5090983;28;19940;-70
2021/08/07 10:13:00;;;;;;;;;;;22.20;99.90;;;;;;5089157;28;19909;-70
2021/08/07 10:15:26;;;;;;;;;;;22.00;99.90;;;;;;5090464;28;19916;-70
2021/08/07 10:17:51;;;;;;;;;;;21.90;99.90;;;;;;5106056;28;19908;-69
2021/08/07 10:20:17;;;;;;;;;;;21.80;99.90;;;;;;5089035;28;19915;-69
2021/08/07 10:22:43;;;;;;;;;;;22.00;99.90;;;;;;5108757;28;19916;-69
2021/08/07 10:25:09;;;;;;;;;;;22.00;99.90;;;;;;5075505;28;19914;-69
2021/08/07 10:27:35;;;;;;;;;;;22.20;99.90;;;;;;5110647;28;19908;-69
2021/08/07 10:30:03;;;;;;;;;;;22.30;99.90;;;;;;5092704;28;20422;-69
2021/08/07 10:32:29;;;;;;;;;;;23.60;99.90;;;;;;5110826;28;20293;-69
2021/08/07 10:34:55;;;;;;;;;;;24.70;99.90;;;;;;5086188;28;19923;-69
2021/08/07 10:37:21;;;;;;;;;;;24.10;99.90;;;;;;5096923;28;20369;-69
2021/08/07 10:39:47;;;;;;;;;;;23.50;99.90;;;;;;5096844;28;19954;-69
2021/08/07 10:42:14;;;;;;;;;;;23.20;99.90;;;;;;5078677;28;19915;-70
2021/08/07 10:44:41;;;;;;;;;;;22.80;99.90;;;;;;5078538;28;19912;-69
2021/08/07 10:47:07;;;;;;;;;;;22.50;99.90;;;;;;5097253;28;19912;-69
2021/08/07 10:49:35;;;;;;;;;;;22.50;99.90;;;;;;5097219;28;19962;-69
2021/08/07 10:52:00;;;;;;;;;;;22.50;99.90;;;;;;5096871;28;20357;-69
2021/08/07 10:54:29;;;;;;;;;;;22.50;99.90;;;;;;5096845;28;19908;-69
2021/08/07 10:56:54;;;;;;;;;;;22.60;99.90;;;;;;5096816;28;20003;-69
2021/08/07 10:59:21;;;;;;;;;;;22.60;99.90;;;;;;5078340;28;19955;-69
2021/08/07 11:01:48;;;;;;;;;;;22.50;99.90;;;;;;5078216;28;19908;-69
2021/08/07 11:04:17;;;;;;;;;;;22.10;99.90;;;;;;5078621;28;19912;-69
2021/08/07 11:06:47;;;;;;;;;;;22.20;99.90;;;;;;5096609;28;19912;-69
2021/08/07 11:09:18;;;;;;;;;;;22.40;99.90;;;;;;5096540;28;19957;-69
2021/08/07 11:11:44;;;;;;;;;;;22.50;99.90;;;;;;5096785;28;19908;-69
2021/08/07 11:19:46;;;;;;;;;;;23.20;99.90;;;;;;5092382;27;19913;-70
2021/08/07 11:22:12;;;;;;;;;;;23.30;99.90;;;;;;5090166;28;20011;-70
2021/08/07 11:24:57;;;;;;;;;;;23.60;99.90;;;;;;5091398;28;20336;-71
2021/08/07 11:27:43;;;;;;;;;;;23.50;99.90;;;;;;5091404;28;19955;-70
2021/08/07 11:30:25;;;;;;;;;;;23.20;99.90;;;;;;5091885;28;19962;-71
2021/08/07 11:35:39;;;;;;;;;;;22.80;99.90;;;;;;5092294;27;19912;-71
2021/08/07 11:38:09;;;;;;;;;;;23.10;99.90;;;;;;5091698;28;19955;-71
2021/08/07 11:40:37;;;;;;;;;;;23.40;99.90;;;;;;5091646;28;20285;-71
2021/08/07 11:43:03;;;;;;;;;;;23.40;99.90;;;;;;5091635;28;19916;-70
2021/08/07 11:45:28;;;;;;;;;;;23.40;99.90;;;;;;5089963;28;19913;-71
2021/08/07 11:47:53;;;;;;;;;;;23.80;99.90;;;;;;5091152;28;19931;-71
2021/08/07 11:50:19;;;;;;;;;;;23.90;99.90;;;;;;5124280;28;20008;-71
2021/08/07 11:52:45;;;;;;;;;;;23.60;99.90;;;;;;5106819;28;20366;-71
2021/08/07 11:55:10;;;;;;;;;;;24.10;99.90;;;;;;5090974;28;19961;-71
2021/08/07 11:57:36;;;;;;;;;;;24.10;99.90;;;;;;5091048;28;19915;-71
2021/08/07 12:00:17;;;;;;;;;;;24.00;99.90;;;;;;5090989;28;19954;-71
2021/08/07 12:02:42;;;;;;;;;;;23.70;99.90;;;;;;5090928;28;19908;-71
2021/08/07 12:05:08;;;;;;;;;;;23.70;99.90;;;;;;5090858;28;19961;-71
2021/08/07 12:07:33;;;;;;;;;;;23.50;99.90;;;;;;5089545;28;20015;-71
2021/08/07 12:10:06;;;;;;;;;;;23.60;99.90;;;;;;5124006;28;19915;-70
2021/08/07 12:12:32;;;;;;;;;;;24.00;99.90;;;;;;5123964;28;20362;-70
2021/08/07 12:15:06;;;;;;;;;;;24.40;99.90;;;;;;5090955;28;19919;-70
2021/08/07 12:17:31;;;;;;;;;;;24.60;99.90;;;;;;5090700;28;19912;-70
2021/08/07 12:20:00;;;;;;;;;;;24.80;99.90;;;;;;5089395;28;19954;-70
2021/08/07 12:22:26;;;;;;;;;;;24.80;99.90;;;;;;5090933;28;19915;-69
2021/08/07 12:25:06;;;;;;;;;;;24.50;99.90;;;;;;5090866;28;19908;-70
2021/08/07 12:27:32;;;;;;;;;;;24.10;99.90;;;;;;5090807;28;19958;-70
2021/08/07 12:30:04;;;;;;;;;;;23.90;99.90;;;;;;5123701;28;19908;-70
2021/08/07 12:32:29;;;;;;;;;;;23.90;99.90;;;;;;5091228;28;20261;-70
2021/08/07 12:34:55;;;;;;;;;;;23.70;99.90;;;;;;5088831;28;19920;-70
2021/08/07 12:37:20;;;;;;;;;;;23.40;99.90;;;;;;5123183;28;19909;-70
2021/08/07 12:39:49;;;;;;;;;;;23.40;99.90;;;;;;5123513;28;20009;-70
2021/08/07 12:42:16;;;;;;;;;;;23.30;99.90;;;;;;5123173;28;19909;-70
2021/08/07 12:44:41;;;;;;;;;;;23.40;99.90;;;;;;5089736;28;19908;-70
2021/08/07 12:47:07;;;;;;;;;;;23.30;99.90;;;;;;5075440;28;20311;-70
2021/08/07 12:52:14;;;;;;;;;;;23.10;99.90;;;;;;5092345;27;19919;-70
2021/08/07 12:54:40;;;;;;;;;;;23.10;99.90;;;;;;5090235;28;20006;-69
2021/08/07 12:57:26;;;;;;;;;;;22.70;99.90;;;;;;5091374;28;19909;-69
2021/08/07 12:59:52;;;;;;;;;;;22.70;99.90;;;;;;5091866;28;19966;-70
2021/08/07 13:02:18;;;;;;;;;;;22.80;99.90;;;;;;5091850;28;19909;-70
2021/08/07 13:04:51;;;;;;;;;;;22.80;99.90;;;;;;5112209;28;20311;-70
2021/08/07 13:07:27;;;;;;;;;;;22.80;99.90;;;;;;5112054;28;19912;-69
2021/08/07 13:09:52;;;;;;;;;;;23.00;99.90;;;;;;5127136;28;19995;-70
2021/08/07 13:12:20;;;;;;;;;;;23.20;99.90;;;;;;5110747;28;20436;-70
2021/08/07 13:15:06;;;;;;;;;;;23.20;99.90;;;;;;5111667;28;19908;-69
2021/08/07 13:17:36;;;;;;;;;;;23.20;99.90;;;;;;5111301;28;19908;-70
2021/08/07 13:20:04;;;;;;;;;;;23.50;99.90;;;;;;5127987;28;19912;-70
2021/08/07 13:22:29;;;;;;;;;;;23.30;99.90;;;;;;5111800;28;19946;-70
2021/08/07 13:24:56;;;;;;;;;;;23.40;99.90;;;;;;5111796;28;19947;-69
2021/08/07 13:27:32;;;;;;;;;;;23.30;99.90;;;;;;5111593;28;20475;-69
2021/08/07 13:29:59;;;;;;;;;;;22.90;99.90;;;;;;5127067;28;20011;-70
2021/08/07 13:32:27;;;;;;;;;;;22.80;99.90;;;;;;5111140;28;19919;-70
2021/08/07 13:34:52;;;;;;;;;;;22.60;99.90;;;;;;5126786;28;19915;-70
2021/08/07 13:37:18;;;;;;;;;;;22.30;99.90;;;;;;5110913;28;19908;-70
2021/08/07 13:39:44;;;;;;;;;;;22.20;99.90;;;;;;5110833;28;19908;-70
2021/08/07 13:42:10;;;;;;;;;;;22.20;99.90;;;;;;5110870;28;19912;-70
2021/08/07 13:44:36;;;;;;;;;;;22.00;99.90;;;;;;5126549;28;19915;-70
2021/08/07 13:47:02;;;;;;;;;;;21.80;99.90;;;;;;5110966;28;20408;-70
2021/08/07 13:49:28;;;;;;;;;;;21.60;99.90;;;;;;5126856;28;19908;-70
2021/08/07 13:51:54;;;;;;;;;;;21.70;99.90;;;;;;5126191;28;20343;-69
2021/08/07 13:54:19;;;;;;;;;;;21.50;99.90;;;;;;5110591;28;19933;-70
2021/08/07 13:56:45;;;;;;;;;;;21.40;99.90;;;;;;5111149;28;20280;-68
2021/08/07 13:59:10;;;;;;;;;;;21.50;99.90;;;;;;5110947;28;19908;-70
2021/08/07 14:01:35;;;;;;;;;;;21.70;99.90;;;;;;5108703;28;19915;-70
2021/08/07 14:04:01;;;;;;;;;;;21.80;99.90;;;;;;5097018;28;19912;-69
2021/08/07 14:06:26;;;;;;;;;;;21.80;99.90;;;;;;5112523;28;20043;-69
2021/08/07 14:08:52;;;;;;;;;;;22.20;99.90;;;;;;5096745;28;19908;-69
2021/08/07 14:11:17;;;;;;;;;;;22.70;99.90;;;;;;5112464;28;20311;-69
2021/08/07 14:13:43;;;;;;;;;;;22.80;99.90;;;;;;5096644;28;20007;-71
2021/08/07 14:16:08;;;;;;;;;;;22.60;99.90;;;;;;5096632;28;19915;-70
2021/08/07 14:18:34;;;;;;;;;;;22.30;99.90;;;;;;5112413;28;19950;-69
2021/08/07 14:20:59;;;;;;;;;;;22.30;99.90;;;;;;5096524;28;19916;-71
2021/08/07 14:23:25;;;;;;;;;;;22.30;99.90;;;;;;5097334;28;19958;-70
2021/08/07 14:25:50;;;;;;;;;;;22.40;99.90;;;;;;5112615;28;19914;-70
2021/08/07 14:28:16;;;;;;;;;;;22.50;99.90;;;;;;5112700;28;19914;-70
2021/08/07 14:30:41;;;;;;;;;;;22.70;99.90;;;;;;5096492;28;19912;-70